Time;durP1;ratioP1;P1;durP2;ratioP2;P2;SDS_P1;SDS_P2;PMS_P1;PMS_P2;Temp;Humidity;BMP_temperature;BMP_pressure;BME280_temperature;BME280_humidity;BME280_pressure;Samples;Min_cycle;Max_cycle;Signal;HPM_P1;HPM_P2
2024/04/20 05:20:12;;;;;;;;;;;;;;;;;;5413875;26;20315;-49
2024/04/20 05:22:38;;;;;;;;;;;;;;;;;;5416101;26;20427;-50
2024/04/20 05:25:04;;;;;;;;;;;;;;;;;;5416586;26;19941;-53
2024/04/20 05:27:30;;;;;;;;;;;;;;;;;;5415876;26;19929;-50
2024/04/20 05:29:56;;;;;;;;;;;;;;;;;;5416436;26;19929;-52
2024/04/20 05:32:21;;;;;;;;;;;;;;;;;;5416051;26;20344;-50
2024/04/20 05:34:47;;;;;;;;;;;;;;;;;;5416102;26;19929;-52
2024/04/20 05:37:13;;;;;;;;;;;;;;;;;;5415702;26;19929;-53
2024/04/20 05:39:39;;;;;;;;;;;;;;;;;;5416470;26;19929;-50
2024/04/20 05:42:05;;;;;;;;;;;;;;;;;;5416390;26;19936;-52
2024/04/20 05:44:31;;;;;;;;;;;;;;;;;;5415882;26;19941;-52
2024/04/20 05:46:57;;;;;;;;;;;;;;;;;;5416272;26;19941;-54
2024/04/20 05:49:23;;;;;;;;;;;;;;;;;;5415751;26;19937;-53
2024/04/20 05:51:49;;;;;;;;;;;;;;;;;;5415934;26;20288;-52
2024/04/20 05:54:14;;;;;;;;;;;;;;;;;;5415658;26;20431;-50
2024/04/20 05:56:40;;;;;;;;;;;;;;;;;;5414485;26;19935;-52
2024/04/20 05:59:06;;;;;;;;;;;;;;;;;;5404959;26;19929;-51
2024/04/20 06:01:32;;;;;;;;;;;;;;;;;;5416092;26;20002;-49
2024/04/20 06:03:59;;;;;;;;;;;;;;;;;;5414306;26;19941;-51
2024/04/20 06:06:25;;;;;;;;;;;;;;;;;;5415869;26;19929;-53
2024/04/20 06:08:51;;;;;;;;;;;;;;;;;;5412966;26;20397;-53
2024/04/20 06:11:17;;;;;;;;;;;;;;;;;;5409308;26;19936;-51
2024/04/20 06:13:43;;;;;;;;;;;;;;;;;;5416076;26;19978;-54
2024/04/20 06:16:08;;;;;;;;;;;;;;;;;;5415725;26;19957;-51
2024/04/20 06:18:34;;;;;;;;;;;;;;;;;;5415731;26;19933;-51
2024/04/20 06:21:00;;;;;;;;;;;;;;;;;;5415520;26;19936;-53
2024/04/20 06:23:26;;;;;;;;;;;;;;;;;;5415224;26;20331;-52
2024/04/20 06:25:52;;;;;;;;;;;;;;;;;;5406521;26;19939;-52
2024/04/20 06:28:18;;;;;;;;;;;;;;;;;;5415060;26;20374;-50
2024/04/20 06:30:45;;;;;;;;;;;;;;;;;;5415642;26;19941;-52
2024/04/20 06:33:11;;;;;;;;;;;;;;;;;;5415499;26;20588;-52
2024/04/20 06:35:37;;;;;;;;;;;;;;;;;;5415101;26;19936;-50
2024/04/20 06:38:03;;;;;;;;;;;;;;;;;;5413428;26;19997;-49
2024/04/20 06:40:29;;;;;;;;;;;;;;;;;;5414496;26;19936;-53
2024/04/20 06:42:55;;;;;;;;;;;;;;;;;;5412912;26;20290;-50
2024/04/20 06:45:21;;;;;;;;;;;;;;;;;;5415004;26;19936;-51
2024/04/20 06:47:47;;;;;;;;;;;;;;;;;;5413975;26;19933;-52
2024/04/20 06:50:17;;;;;;;;;;;;;;;;;;5415294;26;20375;-52
2024/04/20 06:52:43;;;;;;;;;;;;;;;;;;5413308;26;19978;-51
2024/04/20 06:55:10;;;;;;;;;;;;;;;;;;5413033;26;20360;-53
2024/04/20 06:57:36;;;;;;;;;;;;;;;;;;5414963;26;19937;-54
2024/04/20 07:00:01;;;;;;;;;;;;;;;;;;5414861;26;19929;-53
2024/04/20 07:02:27;;;;;;;;;;;;;;;;;;5412469;26;19941;-52
2024/04/20 07:04:53;;;;;;;;;;;;;;;;;;5413708;26;20301;-51
2024/04/20 07:07:19;;;;;;;;;;;;;;;;;;5415090;26;19929;-52
2024/04/20 07:09:45;;;;;;;;;;;;;;;;;;5414669;26;19939;-53
2024/04/20 07:12:11;;;;;;;;;;;;;;;;;;5400475;26;20275;-51
2024/04/20 07:14:37;;;;;;;;;;;;;;;;;;5398650;26;19936;-51
2024/04/20 07:17:03;;;;;;;;;;;;;;;;;;5413796;26;19929;-50
2024/04/20 07:19:29;;;;;;;;;;;;;;;;;;5405484;26;20354;-50
2024/04/20 07:21:54;;;;;;;;;;;;;;;;;;5373499;26;19929;-52
2024/04/20 07:24:21;;;;;;;;;;;;;;;;;;5388177;26;20071;-54
2024/04/20 07:26:47;;;;;;;;;;;;;;;;;;5393766;26;19929;-52
2024/04/20 07:29:13;;;;;;;;;;;;;;;;;;5413066;26;19935;-54
2024/04/20 07:31:39;;;;;;;;;;;;;;;;;;5414063;26;20354;-52
2024/04/20 07:34:05;;;;;;;;;;;;;;;;;;5414551;26;19936;-52
2024/04/20 07:36:31;;;;;;;;;;;;;;;;;;5411685;26;19964;-51
2024/04/20 07:38:57;;;;;;;;;;;;;;;;;;5414151;26;19940;-52
2024/04/20 07:41:22;;;;;;;;;;;;;;;;;;5414440;26;19929;-52
2024/04/20 07:43:48;;;;;;;;;;;;;;;;;;5410685;26;20287;-53
2024/04/20 07:46:14;;;;;;;;;;;;;;;;;;5414271;26;19929;-51
2024/04/20 07:48:41;;;;;;;;;;;;;;;;;;5413646;26;19929;-50
2024/04/20 07:51:07;;;;;;;;;;;;;;;;;;5414327;26;19935;-52
2024/04/20 07:53:33;;;;;;;;;;;;;;;;;;5412682;26;19929;-51
2024/04/20 07:55:59;;;;;;;;;;;;;;;;;;5406578;26;20354;-52
2024/04/20 07:58:24;;;;;;;;;;;;;;;;;;5388104;26;19937;-52
2024/04/20 08:00:50;;;;;;;;;;;;;;;;;;5413844;26;20358;-51
2024/04/20 08:03:17;;;;;;;;;;;;;;;;;;5413945;26;19929;-54
2024/04/20 08:05:43;;;;;;;;;;;;;;;;;;5417467;26;19929;-51
2024/04/20 08:08:09;;;;;;;;;;;;;;;;;;5429589;26;19936;-52
2024/04/20 08:10:35;;;;;;;;;;;;;;;;;;5416606;26;19936;-50
2024/04/20 08:13:01;;;;;;;;;;;;;;;;;;5414255;26;19929;-52
2024/04/20 08:15:26;;;;;;;;;;;;;;;;;;5413532;26;19945;-51
2024/04/20 08:17:52;;;;;;;;;;;;;;;;;;5413648;26;19929;-53
2024/04/20 08:20:18;;;;;;;;;;;;;;;;;;5413345;26;19940;-52
2024/04/20 08:22:44;;;;;;;;;;;;;;;;;;5407403;26;19930;-52
2024/04/20 08:25:10;;;;;;;;;;;;;;;;;;5386296;26;19930;-51
2024/04/20 08:27:36;;;;;;;;;;;;;;;;;;5382336;26;19936;-53
2024/04/20 08:30:02;;;;;;;;;;;;;;;;;;5417447;26;19940;-54
2024/04/20 08:32:28;;;;;;;;;;;;;;;;;;5416179;26;19929;-52
2024/04/20 08:34:54;;;;;;;;;;;;;;;;;;5414288;26;19929;-51
2024/04/20 08:37:20;;;;;;;;;;;;;;;;;;5416750;26;19935;-52
2024/04/20 08:39:45;;;;;;;;;;;;;;;;;;5417223;26;19929;-53
2024/04/20 08:42:11;;;;;;;;;;;;;;;;;;5417177;26;19952;-51
2024/04/20 08:44:37;;;;;;;;;;;;;;;;;;5416985;26;19929;-53
2024/04/20 08:47:04;;;;;;;;;;;;;;;;;;5416910;26;19929;-51
2024/04/20 08:49:31;;;;;;;;;;;;;;;;;;5416677;26;19939;-48
2024/04/20 08:51:57;;;;;;;;;;;;;;;;;;5416996;26;20344;-52
2024/04/20 08:54:23;;;;;;;;;;;;;;;;;;5416825;26;19929;-53
2024/04/20 08:56:49;;;;;;;;;;;;;;;;;;5407336;26;19936;-54
2024/04/20 08:59:14;;;;;;;;;;;;;;;;;;5381697;26;19930;-53
2024/04/20 09:01:40;;;;;;;;;;;;;;;;;;5381183;26;19936;-50
2024/04/20 09:04:06;;;;;;;;;;;;;;;;;;5414405;26;19928;-52
2024/04/20 09:06:32;;;;;;;;;;;;;;;;;;5413762;26;20266;-52
2024/04/20 09:08:58;;;;;;;;;;;;;;;;;;5416872;26;20374;-55
2024/04/20 09:11:24;;;;;;;;;;;;;;;;;;5416299;26;19929;-55
2024/04/20 09:13:50;;;;;;;;;;;;;;;;;;5416680;26;19928;-54
2024/04/20 09:16:16;;;;;;;;;;;;;;;;;;5415503;26;19957;-53
2024/04/20 09:18:42;;;;;;;;;;;;;;;;;;5416352;26;19929;-54
2024/04/20 09:21:08;;;;;;;;;;;;;;;;;;5415469;26;20356;-51
2024/04/20 09:23:33;;;;;;;;;;;;;;;;;;5408973;26;20011;-52
2024/04/20 09:26:00;;;;;;;;;;;;;;;;;;5415214;26;19998;-53
2024/04/20 09:28:29;;;;;;;;;;;;;;;;;;5416334;26;20006;-51
2024/04/20 09:30:55;;;;;;;;;;;;;;;;;;5414928;26;19998;-54
2024/04/20 09:33:21;;;;;;;;;;;;;;;;;;5382575;26;20333;-52
2024/04/20 09:35:47;;;;;;;;;;;;;;;;;;5393852;26;19936;-53
2024/04/20 09:38:13;;;;;;;;;;;;;;;;;;5415298;26;20018;-54
2024/04/20 09:40:38;;;;;;;;;;;;;;;;;;5414544;26;19936;-51
2024/04/20 09:43:05;;;;;;;;;;;;;;;;;;5416305;26;19931;-55
2024/04/20 09:45:31;;;;;;;;;;;;;;;;;;5416075;26;20343;-53
2024/04/20 09:47:57;;;;;;;;;;;;;;;;;;5416186;26;19936;-52
2024/04/20 09:50:23;;;;;;;;;;;;;;;;;;5416227;26;19936;-52
2024/04/20 09:52:49;;;;;;;;;;;;;;;;;;5416576;26;19929;-53
2024/04/20 09:55:15;;;;;;;;;;;;;;;;;;5415965;26;20275;-53
2024/04/20 09:57:41;;;;;;;;;;;;;;;;;;5415726;26;19937;-51
2024/04/20 10:00:07;;;;;;;;;;;;;;;;;;5415659;26;19928;-53
2024/04/20 10:02:33;;;;;;;;;;;;;;;;;;5405147;26;20346;-52
2024/04/20 10:05:00;;;;;;;;;;;;;;;;;;5415291;26;19998;-53
2024/04/20 10:07:28;;;;;;;;;;;;;;;;;;5415507;26;20391;-53
2024/04/20 10:09:53;;;;;;;;;;;;;;;;;;5415989;26;19929;-51
2024/04/20 10:12:19;;;;;;;;;;;;;;;;;;5416202;26;19935;-52
2024/04/20 10:14:45;;;;;;;;;;;;;;;;;;5415208;26;19940;-51
2024/04/20 10:17:11;;;;;;;;;;;;;;;;;;5415530;26;20436;-55
2024/04/20 10:19:37;;;;;;;;;;;;;;;;;;5415297;26;19936;-53
2024/04/20 10:22:03;;;;;;;;;;;;;;;;;;5415147;26;19935;-51
2024/04/20 10:24:29;;;;;;;;;;;;;;;;;;5412070;26;19970;-52
2024/04/20 10:26:56;;;;;;;;;;;;;;;;;;5413115;26;19932;-49
2024/04/20 10:29:22;;;;;;;;;;;;;;;;;;5414369;26;20266;-51
2024/04/20 10:31:48;;;;;;;;;;;;;;;;;;5413835;26;19929;-53
2024/04/20 10:34:14;;;;;;;;;;;;;;;;;;5415010;26;19929;-54
2024/04/20 10:36:40;;;;;;;;;;;;;;;;;;5415129;26;20488;-51
2024/04/20 10:39:05;;;;;;;;;;;;;;;;;;5390930;26;19933;-53
2024/04/20 10:41:31;;;;;;;;;;;;;;;;;;5397970;26;19935;-52
2024/04/20 10:43:57;;;;;;;;;;;;;;;;;;5413701;26;19933;-52
2024/04/20 10:46:23;;;;;;;;;;;;;;;;;;5415222;26;19998;-52
2024/04/20 10:48:49;;;;;;;;;;;;;;;;;;5414219;26;19929;-52
2024/04/20 10:51:17;;;;;;;;;;;;;;;;;;5415497;26;19929;-53
2024/04/20 10:53:43;;;;;;;;;;;;;;;;;;5415172;26;20366;-51
2024/04/20 10:56:09;;;;;;;;;;;;;;;;;;5415333;26;19936;-51
2024/04/20 10:58:35;;;;;;;;;;;;;;;;;;5415366;26;19936;-50
2024/04/20 11:01:01;;;;;;;;;;;;;;;;;;5415391;26;19953;-54
2024/04/20 11:03:26;;;;;;;;;;;;;;;;;;5414509;26;19933;-51
2024/04/20 11:05:52;;;;;;;;;;;;;;;;;;5414987;26;20430;-51
2024/04/20 11:08:18;;;;;;;;;;;;;;;;;;5414744;26;19933;-52
2024/04/20 11:10:44;;;;;;;;;;;;;;;;;;5414835;26;19936;-50
2024/04/20 11:13:10;;;;;;;;;;;;;;;;;;5414644;26;20361;-50
2024/04/20 11:15:36;;;;;;;;;;;;;;;;;;5414970;26;19936;-54
2024/04/20 11:18:02;;;;;;;;;;;;;;;;;;5415136;26;19945;-54
2024/04/20 11:20:28;;;;;;;;;;;;;;;;;;5414504;26;19929;-53
2024/04/20 11:22:55;;;;;;;;;;;;;;;;;;5415143;26;19929;-53
2024/04/20 11:25:21;;;;;;;;;;;;;;;;;;5413503;26;19928;-54
2024/04/20 11:27:49;;;;;;;;;;;;;;;;;;5413598;26;19936;-52
2024/04/20 11:30:15;;;;;;;;;;;;;;;;;;5405988;26;19938;-51
2024/04/20 11:32:41;;;;;;;;;;;;;;;;;;5411197;26;19929;-56
2024/04/20 11:35:07;;;;;;;;;;;;;;;;;;5407789;26;19941;-55
2024/04/20 11:37:32;;;;;;;;;;;;;;;;;;5413179;26;19941;-56
2024/04/20 11:39:58;;;;;;;;;;;;;;;;;;5413670;26;19929;-54
2024/04/20 11:42:24;;;;;;;;;;;;;;;;;;5413566;26;20002;-52
2024/04/20 11:44:50;;;;;;;;;;;;;;;;;;5413282;26;19936;-54
2024/04/20 11:47:16;;;;;;;;;;;;;;;;;;5413463;26;19929;-54
2024/04/20 11:49:42;;;;;;;;;;;;;;;;;;5412947;26;19936;-54
2024/04/20 11:54:53;;;;;;;;;;;;;;;;;;5409495;26;20002;-54
2024/04/20 11:57:19;;;;;;;;;;;;;;;;;;5410498;26;20293;-51
2024/04/20 11:59:45;;;;;;;;;;;;;;;;;;5405149;26;19929;-54
2024/04/20 12:02:11;;;;;;;;;;;;;;;;;;5414301;26;19994;-54
2024/04/20 12:04:36;;;;;;;;;;;;;;;;;;5415529;26;20039;-52
2024/04/20 12:07:02;;;;;;;;;;;;;;;;;;5416407;26;19929;-53
2024/04/20 12:09:28;;;;;;;;;;;;;;;;;;5413704;26;19929;-53
2024/04/20 12:11:55;;;;;;;;;;;;;;;;;;5412579;26;19929;-55
2024/04/20 12:14:21;;;;;;;;;;;;;;;;;;5415155;26;19929;-55
2024/04/20 12:16:47;;;;;;;;;;;;;;;;;;5414748;26;19936;-55
2024/04/20 12:19:13;;;;;;;;;;;;;;;;;;5416369;26;19935;-53
2024/04/20 12:21:39;;;;;;;;;;;;;;;;;;5402638;26;19932;-56
2024/04/20 12:24:04;;;;;;;;;;;;;;;;;;5384790;26;19936;-54
2024/04/20 12:26:30;;;;;;;;;;;;;;;;;;5383814;26;20365;-56
2024/04/20 12:28:56;;;;;;;;;;;;;;;;;;5383312;26;19936;-54
2024/04/20 12:31:22;;;;;;;;;;;;;;;;;;5411772;26;20376;-55
2024/04/20 12:33:48;;;;;;;;;;;;;;;;;;5386825;26;19941;-54
2024/04/20 12:36:14;;;;;;;;;;;;;;;;;;5415305;26;20347;-55
2024/04/20 12:38:40;;;;;;;;;;;;;;;;;;5413586;26;19936;-55
2024/04/20 12:41:06;;;;;;;;;;;;;;;;;;5412143;26;19936;-57
2024/04/20 12:43:32;;;;;;;;;;;;;;;;;;5415734;26;19929;-56
2024/04/20 12:45:57;;;;;;;;;;;;;;;;;;5414714;26;19929;-56
2024/04/20 12:48:27;;;;;;;;;;;;;;;;;;5408912;26;19936;-52
2024/04/20 12:50:55;;;;;;;;;;;;;;;;;;5415307;26;19936;-55
2024/04/20 12:53:20;;;;;;;;;;;;;;;;;;5415103;26;19929;-56
2024/04/20 12:55:46;;;;;;;;;;;;;;;;;;5406135;26;19965;-55
2024/04/20 12:58:12;;;;;;;;;;;;;;;;;;5383894;26;20010;-57
2024/04/20 13:00:38;;;;;;;;;;;;;;;;;;5405818;26;19998;-54
2024/04/20 13:03:06;;;;;;;;;;;;;;;;;;5393676;26;19948;-54
2024/04/20 13:05:31;;;;;;;;;;;;;;;;;;5398463;26;19941;-56
2024/04/20 13:07:57;;;;;;;;;;;;;;;;;;5383415;26;19935;-57
2024/04/20 13:10:23;;;;;;;;;;;;;;;;;;5415096;26;19929;-55
2024/04/20 13:12:49;;;;;;;;;;;;;;;;;;5382362;26;19929;-52
2024/04/20 13:15:15;;;;;;;;;;;;;;;;;;5414650;26;19940;-56
2024/04/20 13:17:41;;;;;;;;;;;;;;;;;;5412231;26;19993;-57
2024/04/20 13:20:07;;;;;;;;;;;;;;;;;;5412679;26;19936;-56
2024/04/20 13:22:33;;;;;;;;;;;;;;;;;;5379480;26;19936;-56
2024/04/20 13:24:59;;;;;;;;;;;;;;;;;;5408850;26;20374;-56
2024/04/20 13:27:25;;;;;;;;;;;;;;;;;;5406126;26;19929;-56
2024/04/20 13:29:50;;;;;;;;;;;;;;;;;;5413718;26;19929;-56
2024/04/20 13:32:17;;;;;;;;;;;;;;;;;;5406369;26;19940;-56
2024/04/20 13:34:43;;;;;;;;;;;;;;;;;;5413513;26;20336;-56
2024/04/20 13:37:11;;;;;;;;;;;;;;;;;;5415317;26;19929;-57
2024/04/20 13:39:37;;;;;;;;;;;;;;;;;;5414760;26;19937;-56
2024/04/20 13:42:03;;;;;;;;;;;;;;;;;;5415595;26;19929;-55
2024/04/20 13:44:29;;;;;;;;;;;;;;;;;;5413272;26;20294;-57
2024/04/20 13:46:54;;;;;;;;;;;;;;;;;;5415811;26;19937;-57
2024/04/20 13:49:20;;;;;;;;;;;;;;;;;;5415181;26;19929;-57
2024/04/20 13:51:46;;;;;;;;;;;;;;;;;;5414619;26;19940;-56
2024/04/20 13:54:12;;;;;;;;;;;;;;;;;;5414847;26;19933;-56
2024/04/20 13:56:38;;;;;;;;;;;;;;;;;;5408914;26;20358;-55
2024/04/20 13:59:04;;;;;;;;;;;;;;;;;;5412540;26;20363;-55
2024/04/20 14:01:30;;;;;;;;;;;;;;;;;;5405439;26;19979;-54
2024/04/20 14:03:56;;;;;;;;;;;;;;;;;;5397638;26;19948;-56
2024/04/20 14:06:22;;;;;;;;;;;;;;;;;;5392563;26;19929;-55
2024/04/20 14:08:48;;;;;;;;;;;;;;;;;;5383167;26;19929;-56
2024/04/20 14:11:14;;;;;;;;;;;;;;;;;;5411880;26;20329;-54
2024/04/20 14:13:40;;;;;;;;;;;;;;;;;;5408745;26;20050;-55
2024/04/20 14:16:06;;;;;;;;;;;;;;;;;;5405544;26;20371;-56
2024/04/20 14:18:32;;;;;;;;;;;;;;;;;;5413568;26;19935;-55
2024/04/20 14:20:58;;;;;;;;;;;;;;;;;;5413465;26;20006;-57
2024/04/20 14:23:24;;;;;;;;;;;;;;;;;;5412842;26;19937;-56
2024/04/20 14:25:50;;;;;;;;;;;;;;;;;;5412692;26;19930;-56
2024/04/20 14:28:20;;;;;;;;;;;;;;;;;;5412336;26;19935;-54
2024/04/20 14:30:46;;;;;;;;;;;;;;;;;;5408909;26;19950;-53
2024/04/20 14:33:12;;;;;;;;;;;;;;;;;;5411489;26;19930;-55
2024/04/20 14:35:38;;;;;;;;;;;;;;;;;;5407098;26;19936;-56
2024/04/20 14:38:04;;;;;;;;;;;;;;;;;;5414820;26;19937;-56
2024/04/20 14:40:30;;;;;;;;;;;;;;;;;;5381702;26;19936;-55
2024/04/20 14:42:56;;;;;;;;;;;;;;;;;;5409438;26;19929;-57
2024/04/20 14:45:22;;;;;;;;;;;;;;;;;;5413552;26;20266;-55
2024/04/20 14:47:48;;;;;;;;;;;;;;;;;;5413357;26;19962;-54
2024/04/20 14:50:13;;;;;;;;;;;;;;;;;;5411209;26;19940;-57
2024/04/20 14:52:39;;;;;;;;;;;;;;;;;;5412305;26;19998;-57
2024/04/20 14:55:05;;;;;;;;;;;;;;;;;;5412571;26;20338;-55
2024/04/20 14:57:31;;;;;;;;;;;;;;;;;;5412333;26;20026;-57
2024/04/20 14:59:57;;;;;;;;;;;;;;;;;;5383121;26;20291;-57
2024/04/20 15:02:24;;;;;;;;;;;;;;;;;;5413151;26;19998;-56
2024/04/20 15:04:51;;;;;;;;;;;;;;;;;;5411953;26;19929;-56
2024/04/20 15:07:18;;;;;;;;;;;;;;;;;;5410237;26;19929;-54
2024/04/20 15:09:44;;;;;;;;;;;;;;;;;;5377804;26;19929;-56
2024/04/20 15:12:10;;;;;;;;;;;;;;;;;;5412709;26;19929;-56
2024/04/20 15:14:36;;;;;;;;;;;;;;;;;;5409014;26;19941;-55
2024/04/20 15:17:02;;;;;;;;;;;;;;;;;;5413965;26;19929;-58
2024/04/20 15:19:28;;;;;;;;;;;;;;;;;;5375788;26;19936;-56
2024/04/20 15:21:54;;;;;;;;;;;;;;;;;;5378370;26;19995;-56
2024/04/20 15:24:19;;;;;;;;;;;;;;;;;;5404613;26;19929;-54
2024/04/20 15:26:45;;;;;;;;;;;;;;;;;;5413425;26;19929;-56
2024/04/20 15:29:11;;;;;;;;;;;;;;;;;;5382741;26;19929;-56
2024/04/20 15:31:37;;;;;;;;;;;;;;;;;;5411773;26;19957;-55
2024/04/20 15:34:04;;;;;;;;;;;;;;;;;;5412070;26;19936;-56
2024/04/20 15:36:30;;;;;;;;;;;;;;;;;;5404524;26;19937;-55
2024/04/20 15:38:56;;;;;;;;;;;;;;;;;;5382006;26;19936;-56
2024/04/20 15:41:22;;;;;;;;;;;;;;;;;;5413449;26;20270;-56
2024/04/20 15:43:47;;;;;;;;;;;;;;;;;;5411616;26;19993;-54
2024/04/20 15:46:13;;;;;;;;;;;;;;;;;;5412508;26;19936;-56
2024/04/20 15:48:39;;;;;;;;;;;;;;;;;;5413093;26;19929;-57
2024/04/20 15:51:05;;;;;;;;;;;;;;;;;;5374852;26;19936;-55
2024/04/20 15:53:31;;;;;;;;;;;;;;;;;;5407477;26;20151;-54
2024/04/20 15:55:57;;;;;;;;;;;;;;;;;;5408797;26;19935;-56
2024/04/20 15:58:23;;;;;;;;;;;;;;;;;;5408746;26;19997;-56
2024/04/20 16:00:49;;;;;;;;;;;;;;;;;;5410948;26;19940;-54
2024/04/20 16:03:14;;;;;;;;;;;;;;;;;;5410440;26;19929;-55
2024/04/20 16:05:40;;;;;;;;;;;;;;;;;;5410256;26;19936;-54
2024/04/20 16:08:06;;;;;;;;;;;;;;;;;;5382346;26;19929;-56
2024/04/20 16:10:32;;;;;;;;;;;;;;;;;;5413461;26;19929;-56
2024/04/20 16:12:58;;;;;;;;;;;;;;;;;;5413615;26;20290;-56
2024/04/20 16:15:24;;;;;;;;;;;;;;;;;;5410389;26;19937;-56
2024/04/20 16:17:51;;;;;;;;;;;;;;;;;;5404809;26;20377;-56
2024/04/20 16:20:17;;;;;;;;;;;;;;;;;;5409412;26;19935;-56
2024/04/20 16:22:43;;;;;;;;;;;;;;;;;;5411394;26;20262;-56
2024/04/20 16:25:09;;;;;;;;;;;;;;;;;;5395905;26;19929;-56
2024/04/20 16:27:35;;;;;;;;;;;;;;;;;;5401177;26;19940;-56
2024/04/20 16:30:01;;;;;;;;;;;;;;;;;;5410174;26;19937;-56
2024/04/20 16:32:26;;;;;;;;;;;;;;;;;;5412291;26;19929;-56
2024/04/20 16:34:52;;;;;;;;;;;;;;;;;;5397350;26;19998;-57
2024/04/20 16:37:18;;;;;;;;;;;;;;;;;;5386530;26;19930;-57
2024/04/20 16:39:44;;;;;;;;;;;;;;;;;;5409964;26;19929;-57
2024/04/20 16:42:10;;;;;;;;;;;;;;;;;;5393554;26;19930;-56
2024/04/20 16:44:36;;;;;;;;;;;;;;;;;;5391563;26;19929;-55
2024/04/20 16:47:02;;;;;;;;;;;;;;;;;;5410900;26;20514;-57
2024/04/20 16:49:28;;;;;;;;;;;;;;;;;;5415620;26;19961;-57
2024/04/20 16:51:54;;;;;;;;;;;;;;;;;;5383718;26;20521;-57
2024/04/20 16:54:20;;;;;;;;;;;;;;;;;;5412509;26;20299;-57
2024/04/20 16:56:46;;;;;;;;;;;;;;;;;;5413937;26;20496;-56
2024/04/20 16:59:11;;;;;;;;;;;;;;;;;;5384359;26;19931;-57
2024/04/20 17:01:38;;;;;;;;;;;;;;;;;;5414800;26;20491;-57
2024/04/20 17:04:04;;;;;;;;;;;;;;;;;;5414986;26;19936;-57
2024/04/20 17:06:30;;;;;;;;;;;;;;;;;;5415701;26;19928;-57
2024/04/20 17:08:56;;;;;;;;;;;;;;;;;;5415632;26;19937;-57
2024/04/20 17:11:22;;;;;;;;;;;;;;;;;;5411066;26;19936;-56
2024/04/20 17:13:48;;;;;;;;;;;;;;;;;;5409405;26;19929;-57
2024/04/20 17:16:19;;;;;;;;;;;;;;;;;;5410370;26;20087;-55
2024/04/20 17:18:45;;;;;;;;;;;;;;;;;;5415104;26;19937;-57
2024/04/20 17:21:10;;;;;;;;;;;;;;;;;;5415191;26;19928;-57
2024/04/20 17:23:36;;;;;;;;;;;;;;;;;;5414971;26;19937;-56
2024/04/20 17:26:02;;;;;;;;;;;;;;;;;;5411696;26;21933;-54
2024/04/20 17:28:28;;;;;;;;;;;;;;;;;;5412689;26;19929;-58
2024/04/20 17:30:54;;;;;;;;;;;;;;;;;;5414455;26;19933;-56
2024/04/20 17:33:20;;;;;;;;;;;;;;;;;;5413092;26;19936;-57
2024/04/20 17:35:46;;;;;;;;;;;;;;;;;;5411315;26;19933;-55
2024/04/20 17:38:12;;;;;;;;;;;;;;;;;;5405615;26;19929;-56
2024/04/20 17:40:38;;;;;;;;;;;;;;;;;;5412482;26;19936;-56
2024/04/20 17:43:04;;;;;;;;;;;;;;;;;;5413231;26;19936;-57
2024/04/20 17:45:30;;;;;;;;;;;;;;;;;;5412268;26;19936;-55
2024/04/20 17:47:55;;;;;;;;;;;;;;;;;;5408780;26;20018;-56
2024/04/20 17:50:21;;;;;;;;;;;;;;;;;;5410034;26;19982;-56
2024/04/20 17:52:48;;;;;;;;;;;;;;;;;;5413311;26;20262;-56
2024/04/20 17:55:17;;;;;;;;;;;;;;;;;;5409234;26;19929;-56
2024/04/20 17:57:42;;;;;;;;;;;;;;;;;;5401746;26;20404;-54
2024/04/20 18:00:08;;;;;;;;;;;;;;;;;;5414298;26;19929;-55
2024/04/20 18:02:34;;;;;;;;;;;;;;;;;;5414361;26;19998;-53
2024/04/20 18:05:00;;;;;;;;;;;;;;;;;;5414755;26;19936;-56
2024/04/20 18:07:26;;;;;;;;;;;;;;;;;;5407809;26;19935;-55
2024/04/20 18:09:53;;;;;;;;;;;;;;;;;;5410764;26;19935;-55
2024/04/20 18:12:18;;;;;;;;;;;;;;;;;;5396978;26;19957;-55
2024/04/20 18:14:45;;;;;;;;;;;;;;;;;;5380578;26;20325;-56
2024/04/20 18:17:10;;;;;;;;;;;;;;;;;;5362752;26;20465;-56
2024/04/20 18:19:36;;;;;;;;;;;;;;;;;;5366194;26;19937;-55
2024/04/20 18:22:02;;;;;;;;;;;;;;;;;;5378736;26;19935;-56
2024/04/20 18:24:30;;;;;;;;;;;;;;;;;;5364424;26;20252;-55
2024/04/20 18:26:56;;;;;;;;;;;;;;;;;;5405874;26;19980;-55
2024/04/20 18:29:22;;;;;;;;;;;;;;;;;;5406359;26;19929;-55
2024/04/20 18:31:47;;;;;;;;;;;;;;;;;;5369402;26;19929;-54
2024/04/20 18:34:13;;;;;;;;;;;;;;;;;;5402128;26;19938;-54
2024/04/20 18:36:39;;;;;;;;;;;;;;;;;;5412277;26;19929;-56
2024/04/20 18:39:05;;;;;;;;;;;;;;;;;;5409970;26;20291;-55
2024/04/20 18:41:32;;;;;;;;;;;;;;;;;;5409219;26;19936;-56
2024/04/20 18:43:58;;;;;;;;;;;;;;;;;;5405654;26;20346;-55
2024/04/20 18:46:24;;;;;;;;;;;;;;;;;;5407950;26;19961;-56
2024/04/20 18:48:50;;;;;;;;;;;;;;;;;;5407544;26;19937;-56
2024/04/20 18:51:16;;;;;;;;;;;;;;;;;;5403055;26;19929;-56
2024/04/20 18:53:42;;;;;;;;;;;;;;;;;;5405722;26;19958;-56
2024/04/20 18:56:08;;;;;;;;;;;;;;;;;;5383128;26;19952;-56
2024/04/20 18:58:34;;;;;;;;;;;;;;;;;;5403543;26;19929;-55
2024/04/20 19:01:00;;;;;;;;;;;;;;;;;;5410508;26;19936;-55
2024/04/20 19:03:26;;;;;;;;;;;;;;;;;;5412442;26;20428;-56
2024/04/20 19:05:53;;;;;;;;;;;;;;;;;;5413169;26;19997;-55
2024/04/20 19:08:19;;;;;;;;;;;;;;;;;;5408372;26;19936;-52
2024/04/20 19:10:45;;;;;;;;;;;;;;;;;;5412179;26;19929;-55
2024/04/20 19:13:11;;;;;;;;;;;;;;;;;;5413944;26;19937;-54
2024/04/20 19:15:37;;;;;;;;;;;;;;;;;;5409974;26;20267;-55
2024/04/20 19:18:03;;;;;;;;;;;;;;;;;;5377221;26;19929;-54
2024/04/20 19:20:29;;;;;;;;;;;;;;;;;;5410818;26;20377;-54
2024/04/20 19:22:54;;;;;;;;;;;;;;;;;;5358135;26;19944;-54
2024/04/20 19:25:20;;;;;;;;;;;;;;;;;;5411744;26;20378;-54
2024/04/20 19:27:46;;;;;;;;;;;;;;;;;;5406333;26;19998;-55
2024/04/20 19:30:12;;;;;;;;;;;;;;;;;;5410889;26;19929;-54
2024/04/20 19:32:38;;;;;;;;;;;;;;;;;;5406744;26;19929;-55
2024/04/20 19:35:04;;;;;;;;;;;;;;;;;;5413466;26;19929;-54
2024/04/20 19:37:30;;;;;;;;;;;;;;;;;;5407596;26;20010;-55
2024/04/20 19:39:56;;;;;;;;;;;;;;;;;;5407246;26;19945;-52
2024/04/20 19:42:22;;;;;;;;;;;;;;;;;;5410811;26;19986;-54
2024/04/20 19:44:48;;;;;;;;;;;;;;;;;;5379296;26;20255;-55
2024/04/20 19:47:14;;;;;;;;;;;;;;;;;;5408791;26;19929;-54
2024/04/20 19:49:40;;;;;;;;;;;;;;;;;;5410818;26;20363;-55
2024/04/20 19:52:05;;;;;;;;;;;;;;;;;;5409240;26;19937;-54
2024/04/20 19:54:31;;;;;;;;;;;;;;;;;;5410302;26;19940;-56
2024/04/20 19:56:57;;;;;;;;;;;;;;;;;;5410841;26;19933;-55
2024/04/20 19:59:23;;;;;;;;;;;;;;;;;;5369733;26;19929;-54
2024/04/20 20:01:49;;;;;;;;;;;;;;;;;;5402896;26;19940;-55
2024/04/20 20:04:15;;;;;;;;;;;;;;;;;;5410481;26;20011;-55
2024/04/20 20:06:42;;;;;;;;;;;;;;;;;;5413323;26;20262;-53
2024/04/20 20:09:08;;;;;;;;;;;;;;;;;;5382069;26;19929;-55
2024/04/20 20:11:34;;;;;;;;;;;;;;;;;;5411206;26;20026;-54
2024/04/20 20:14:00;;;;;;;;;;;;;;;;;;5373426;26;20263;-55
2024/04/20 20:16:26;;;;;;;;;;;;;;;;;;5397064;26;19929;-55
2024/04/20 20:18:52;;;;;;;;;;;;;;;;;;5408596;26;20343;-56
2024/04/20 20:21:17;;;;;;;;;;;;;;;;;;5409060;26;19929;-55
2024/04/20 20:23:43;;;;;;;;;;;;;;;;;;5412928;26;19943;-53
2024/04/20 20:26:13;;;;;;;;;;;;;;;;;;5415771;26;19929;-55
2024/04/20 20:28:39;;;;;;;;;;;;;;;;;;5412536;26;19929;-55
2024/04/20 20:31:04;;;;;;;;;;;;;;;;;;5379215;26;19961;-53
2024/04/20 20:33:30;;;;;;;;;;;;;;;;;;5407946;26;19937;-56
2024/04/20 20:35:56;;;;;;;;;;;;;;;;;;5412478;26;19929;-56
2024/04/20 20:38:22;;;;;;;;;;;;;;;;;;5414848;26;19929;-56
2024/04/20 20:40:48;;;;;;;;;;;;;;;;;;5415715;26;20191;-55
2024/04/20 20:43:14;;;;;;;;;;;;;;;;;;5414162;26;19929;-55
2024/04/20 20:45:40;;;;;;;;;;;;;;;;;;5415765;26;20379;-56
2024/04/20 20:48:07;;;;;;;;;;;;;;;;;;5413083;26;19940;-56
2024/04/20 20:50:33;;;;;;;;;;;;;;;;;;5384296;26;19973;-55
2024/04/20 20:52:59;;;;;;;;;;;;;;;;;;5407582;26;19929;-54
2024/04/20 20:55:29;;;;;;;;;;;;;;;;;;5415390;26;19936;-53
2024/04/20 20:57:55;;;;;;;;;;;;;;;;;;5413755;26;19937;-54
2024/04/20 21:00:21;;;;;;;;;;;;;;;;;;5413729;26;20266;-55
2024/04/20 21:02:47;;;;;;;;;;;;;;;;;;5415858;26;19940;-53
2024/04/20 21:05:13;;;;;;;;;;;;;;;;;;5412438;26;20378;-55
2024/04/20 21:07:39;;;;;;;;;;;;;;;;;;5411829;26;20720;-55
2024/04/20 21:10:05;;;;;;;;;;;;;;;;;;5404377;26;19928;-55
2024/04/20 21:12:30;;;;;;;;;;;;;;;;;;5409779;26;19994;-55
2024/04/20 21:14:56;;;;;;;;;;;;;;;;;;5411866;26;19936;-54
2024/04/20 21:17:22;;;;;;;;;;;;;;;;;;5378962;26;19936;-54
2024/04/20 21:19:48;;;;;;;;;;;;;;;;;;5415380;26;19937;-55
2024/04/20 21:22:14;;;;;;;;;;;;;;;;;;5381088;26;19940;-55
2024/04/20 21:24:40;;;;;;;;;;;;;;;;;;5412956;26;20393;-55
2024/04/20 21:27:06;;;;;;;;;;;;;;;;;;5411424;26;19936;-55
2024/04/20 21:29:32;;;;;;;;;;;;;;;;;;5413393;26;19929;-55
2024/04/20 21:31:58;;;;;;;;;;;;;;;;;;5413696;26;19929;-54
2024/04/20 21:34:24;;;;;;;;;;;;;;;;;;5411848;26;20355;-55
2024/04/20 21:36:50;;;;;;;;;;;;;;;;;;5410409;26;19940;-52
2024/04/20 21:39:16;;;;;;;;;;;;;;;;;;5415354;26;19940;-56
2024/04/20 21:41:41;;;;;;;;;;;;;;;;;;5412863;26;19929;-56
2024/04/20 21:44:08;;;;;;;;;;;;;;;;;;5415619;26;19941;-54
2024/04/20 21:46:34;;;;;;;;;;;;;;;;;;5411830;26;19929;-55
2024/04/20 21:48:59;;;;;;;;;;;;;;;;;;5414014;26;19929;-55
2024/04/20 21:51:25;;;;;;;;;;;;;;;;;;5413833;26;19937;-55
2024/04/20 21:53:51;;;;;;;;;;;;;;;;;;5414073;26;19931;-54
2024/04/20 21:56:17;;;;;;;;;;;;;;;;;;5411640;26;19929;-54
2024/04/20 21:58:43;;;;;;;;;;;;;;;;;;5382579;26;19936;-54